Time;durP1;ratioP1;P1;durP2;ratioP2;P2;SDS_P1;SDS_P2;PMS_P1;PMS_P2;Temp;Humidity;BMP_temperature;BMP_pressure;BME280_temperature;BME280_humidity;BME280_pressure;Samples;Min_cycle;Max_cycle;Signal;HPM_P1;HPM_P2
2021/09/10 00:00:00;;;;;;;0.30;0.30;;;18.10;99.90;;;;;;5056804;28;20202;-82
2021/09/10 00:02:26;;;;;;;2.23;0.70;;;18.00;99.90;;;;;;5051413;28;20037;-83
2021/09/10 00:04:51;;;;;;;0.87;0.87;;;18.10;99.90;;;;;;5054586;28;20327;-83
2021/09/10 00:07:17;;;;;;;0.57;0.57;;;18.10;99.90;;;;;;5035937;28;20028;-83
2021/09/10 00:09:43;;;;;;;0.47;0.47;;;18.20;99.90;;;;;;5054601;28;20071;-82
2021/09/10 00:12:08;;;;;;;0.40;0.40;;;18.30;99.90;;;;;;5053954;28;20094;-82
2021/09/10 00:14:34;;;;;;;0.90;0.87;;;18.20;99.90;;;;;;5051790;28;20063;-82
2021/09/10 00:17:00;;;;;;;0.90;0.90;;;18.20;99.90;;;;;;5035228;28;20512;-81
2021/09/10 00:19:25;;;;;;;4.90;0.40;;;18.20;99.90;;;;;;5053347;28;20149;-80
2021/09/10 00:21:51;;;;;;;0.80;0.80;;;18.30;99.90;;;;;;5042464;28;20767;-79
2021/09/10 00:24:17;;;;;;;0.90;0.77;;;18.30;99.90;;;;;;5050382;28;20051;-80
2021/09/10 00:26:42;;;;;;;0.67;0.67;;;18.30;99.90;;;;;;5052215;28;20482;-80
2021/09/10 00:29:08;;;;;;;0.77;0.77;;;18.30;99.90;;;;;;5054583;28;20488;-79
2021/09/10 00:31:34;;;;;;;0.87;0.70;;;18.30;99.90;;;;;;5052717;28;20477;-79
2021/09/10 00:34:00;;;;;;;0.40;0.40;;;18.20;99.90;;;;;;5052893;28;20047;-79
2021/09/10 00:36:25;;;;;;;0.67;0.47;;;18.30;99.90;;;;;;5058029;28;20081;-79
2021/09/10 00:38:51;;;;;;;0.60;0.60;;;18.30;99.90;;;;;;5036300;28;20124;-80
2021/09/10 00:41:16;;;;;;;0.63;0.63;;;18.40;99.90;;;;;;5054701;28;20493;-81
2021/09/10 00:43:42;;;;;;;2.83;1.10;;;18.20;99.90;;;;;;5053795;28;20402;-80
2021/09/10 00:46:09;;;;;;;0.53;0.47;;;18.30;99.90;;;;;;5053683;28;20460;-81
2021/09/10 00:48:35;;;;;;;;;;;18.20;99.90;;;;;;5053913;28;20493;-81
2021/09/10 00:51:01;;;;;;;1.85;0.82;;;18.30;99.90;;;;;;5054365;28;19915;-81
2021/09/10 00:53:27;;;;;;;0.73;0.73;;;18.30;99.90;;;;;;5049931;28;20037;-81
2021/09/10 00:55:53;;;;;;;0.38;0.38;;;18.20;99.90;;;;;;5052521;28;20489;-81
2021/09/10 00:58:18;;;;;;;0.50;0.47;;;18.30;99.90;;;;;;5052832;28;20043;-81
2021/09/10 01:00:44;;;;;;;1.80;1.07;;;18.30;99.90;;;;;;5057992;28;20481;-80
2021/09/10 01:03:12;;;;;;;0.30;0.30;;;17.90;99.90;;;;;;5055301;28;20120;-81
2021/09/10 01:05:40;;;;;;;1.40;0.75;;;17.70;99.90;;;;;;5057589;28;20119;-81
2021/09/10 01:08:07;;;;;;;0.35;0.35;;;17.60;99.90;;;;;;5056744;28;20021;-81
2021/09/10 01:10:33;;;;;;;;;;;17.50;99.90;;;;;;5055756;28;20175;-81
2021/09/10 01:12:58;;;;;;;0.30;0.30;;;17.50;99.90;;;;;;5055377;28;19919;-81
2021/09/10 01:15:25;;;;;;;0.93;0.73;;;17.60;99.90;;;;;;5058757;28;20056;-81
2021/09/10 01:17:50;;;;;;;0.60;0.60;;;17.40;99.90;;;;;;5056110;28;20051;-82
2021/09/10 01:20:16;;;;;;;1.13;0.80;;;17.40;99.90;;;;;;5056537;28;20037;-82
2021/09/10 01:22:42;;;;;;;1.63;0.90;;;17.50;99.90;;;;;;5055551;28;20493;-82
2021/09/10 01:25:11;;;;;;;1.37;0.90;;;17.30;99.90;;;;;;5056904;28;20497;-82
2021/09/10 01:27:43;;;;;;;1.55;1.00;;;17.10;99.90;;;;;;5054551;28;20064;-83
2021/09/10 01:30:10;;;;;;;0.80;0.80;;;17.20;99.90;;;;;;5057973;28;20028;-82
2021/09/10 01:32:36;;;;;;;0.30;0.30;;;17.20;99.90;;;;;;5055131;28;20087;-83
2021/09/10 01:35:03;;;;;;;0.20;0.20;;;17.20;99.90;;;;;;5055114;28;20140;-83
2021/09/10 01:37:29;;;;;;;0.30;0.30;;;17.20;99.90;;;;;;5053706;28;20476;-82
2021/09/10 01:39:54;;;;;;;3.30;1.30;;;17.20;99.90;;;;;;5057471;28;20029;-82
2021/09/10 01:42:20;;;;;;;0.40;0.40;;;17.10;99.90;;;;;;5037407;28;20044;-82
2021/09/10 01:44:46;;;;;;;0.60;0.60;;;17.00;99.90;;;;;;5052482;28;20064;-84
2021/09/10 01:47:11;;;;;;;0.57;0.57;;;17.00;99.90;;;;;;5055373;28;20633;-84
2021/09/10 01:49:37;;;;;;;0.73;0.73;;;17.00;99.90;;;;;;5054633;28;20025;-84
2021/09/10 01:52:03;;;;;;;1.87;1.03;;;17.00;99.90;;;;;;5058371;28;20029;-84
2021/09/10 01:54:29;;;;;;;1.97;1.20;;;16.80;99.90;;;;;;5056622;28;20036;-84
2021/09/10 01:56:55;;;;;;;0.60;0.50;;;16.60;99.90;;;;;;5056411;28;20036;-84
2021/09/10 01:59:20;;;;;;;1.07;0.57;;;16.70;99.90;;;;;;5049836;28;20463;-84
2021/09/10 02:01:46;;;;;;;0.40;0.40;;;16.50;99.90;;;;;;5053979;28;20108;-84
2021/09/10 02:04:12;;;;;;;0.60;0.60;;;16.50;99.90;;;;;;5054358;28;20732;-84
2021/09/10 02:06:37;;;;;;;0.53;0.30;;;16.40;99.90;;;;;;5056855;28;20024;-82
2021/09/10 02:09:04;;;;;;;0.57;0.57;;;16.60;99.90;;;;;;5036213;28;20047;-82
2021/09/10 02:11:29;;;;;;;0.80;0.80;;;16.70;99.90;;;;;;5058710;28;20047;-84
2021/09/10 02:13:55;;;;;;;0.47;0.47;;;16.70;99.90;;;;;;5055793;28;20029;-83
2021/09/10 02:16:21;;;;;;;0.50;0.50;;;16.60;99.90;;;;;;5057713;28;20052;-83
2021/09/10 02:18:46;;;;;;;0.47;0.47;;;16.60;99.90;;;;;;5048589;28;20032;-83
2021/09/10 02:21:12;;;;;;;0.97;0.87;;;16.60;99.90;;;;;;5055762;28;20471;-82
2021/09/10 02:23:38;;;;;;;1.30;0.40;;;16.60;99.90;;;;;;5053276;28;20057;-82
2021/09/10 02:26:04;;;;;;;0.50;0.50;;;16.70;99.90;;;;;;5054381;28;20047;-83
2021/09/10 02:28:29;;;;;;;0.23;0.23;;;16.60;38.30;;;;;;5057084;28;20115;-83
2021/09/10 02:30:55;;;;;;;0.17;0.17;;;16.60;99.90;;;;;;5055226;28;20082;-81
2021/09/10 02:33:21;;;;;;;0.20;0.20;;;16.70;52.90;;;;;;5038662;28;20047;-80
2021/09/10 02:35:47;;;;;;;1.37;0.37;;;16.80;1.00;;;;;;5051166;28;20064;-82
2021/09/10 02:38:13;;;;;;;0.47;0.47;;;16.90;99.90;;;;;;5055020;28;20516;-82
2021/09/10 02:40:39;;;;;;;0.95;0.63;;;16.80;99.90;;;;;;5053094;28;20112;-83
2021/09/10 02:43:06;;;;;;;0.57;0.20;;;16.90;99.90;;;;;;5038088;28;20036;-82
2021/09/10 02:45:31;;;;;;;0.77;0.77;;;17.00;99.90;;;;;;5055472;28;20024;-82
2021/09/10 02:47:57;;;;;;;0.73;0.73;;;17.00;99.90;;;;;;5056750;28;20408;-81
2021/09/10 02:50:23;;;;;;;1.10;0.37;;;16.90;99.90;;;;;;5054608;28;20032;-81
2021/09/10 02:52:51;;;;;;;0.63;0.50;;;16.90;99.90;;;;;;5054095;28;20444;-81
2021/09/10 02:55:17;;;;;;;0.32;0.32;;;16.90;99.90;;;;;;5054581;28;20041;-81
2021/09/10 02:57:43;;;;;;;0.30;0.30;;;17.00;99.90;;;;;;5058094;28;20025;-82
2021/09/10 03:00:09;;;;;;;0.20;0.20;;;17.00;99.90;;;;;;5053275;28;20043;-83
2021/09/10 03:02:36;;;;;;;0.20;0.20;;;17.00;99.90;;;;;;5053168;28;20025;-82
2021/09/10 03:05:01;;;;;;;0.63;0.40;;;16.90;99.90;;;;;;5073088;28;20051;-82
2021/09/10 03:07:27;;;;;;;0.63;0.53;;;16.70;99.90;;;;;;5053636;28;20029;-83
2021/09/10 03:09:53;;;;;;;0.30;0.30;;;16.70;99.90;;;;;;5053992;28;20792;-83
2021/09/10 03:12:18;;;;;;;0.57;0.37;;;16.70;99.90;;;;;;5054160;28;20493;-83
2021/09/10 03:14:44;;;;;;;0.57;0.57;;;16.70;99.90;;;;;;5054885;28;20082;-83
2021/09/10 03:17:10;;;;;;;0.30;0.30;;;16.70;99.90;;;;;;5050910;28;20041;-83
2021/09/10 03:19:35;;;;;;;1.93;0.43;;;16.40;99.90;;;;;;5050652;28;20029;-83
2021/09/10 03:22:01;;;;;;;0.63;0.63;;;16.50;99.90;;;;;;5035103;28;20025;-84
2021/09/10 03:24:27;;;;;;;1.07;0.70;;;16.50;99.90;;;;;;5057243;28;20558;-83
2021/09/10 03:26:52;;;;;;;0.33;0.33;;;16.70;99.90;;;;;;5036400;28;20032;-86
2021/09/10 03:29:18;;;;;;;0.40;0.40;;;16.70;99.90;;;;;;5053450;28;20083;-85
2021/09/10 03:31:43;;;;;;;0.60;0.50;;;16.70;99.90;;;;;;5054404;28;20494;-86
2021/09/10 03:34:09;;;;;;;30.80;1.20;;;16.70;99.90;;;;;;5053887;28;20032;-83
2021/09/10 03:36:35;;;;;;;0.97;0.70;;;16.70;99.90;;;;;;5056621;28;20074;-83
2021/09/10 03:39:00;;;;;;;0.50;0.30;;;16.70;99.90;;;;;;5052725;28;20036;-83
2021/09/10 03:41:26;;;;;;;0.50;0.50;;;16.70;99.90;;;;;;5035780;28;20029;-83
2021/09/10 03:43:54;;;;;;;1.70;0.67;;;16.90;99.90;;;;;;5053060;28;20040;-84
2021/09/10 03:46:21;;;;;;;0.68;0.68;;;16.80;99.90;;;;;;5052320;28;20086;-84
2021/09/10 03:48:48;;;;;;;0.98;0.93;;;16.90;99.90;;;;;;5069771;28;20109;-84
2021/09/10 03:51:14;;;;;;;0.32;0.32;;;16.90;99.90;;;;;;5053282;28;20032;-85
2021/09/10 03:53:40;;;;;;;1.80;1.13;;;16.90;99.90;;;;;;5053492;28;20029;-84
2021/09/10 03:56:06;;;;;;;1.60;0.87;;;16.70;99.90;;;;;;5054148;28;20043;-84
2021/09/10 03:58:32;;;;;;;0.30;0.30;;;16.30;99.90;;;;;;5050498;28;20265;-84
2021/09/10 04:00:58;;;;;;;0.80;0.70;;;16.20;99.90;;;;;;5051901;28;20416;-83
2021/09/10 04:03:24;;;;;;;0.30;0.30;;;16.10;99.90;;;;;;5067907;28;20044;-84
2021/09/10 04:05:50;;;;;;;0.27;0.27;;;16.00;99.90;;;;;;5052645;28;20087;-83
2021/09/10 04:08:16;;;;;;;0.70;0.70;;;16.00;99.90;;;;;;5053007;28;20532;-84
2021/09/10 04:10:42;;;;;;;0.55;0.55;;;16.20;99.90;;;;;;5053121;28;20060;-84
2021/09/10 04:13:08;;;;;;;0.27;0.27;;;16.20;99.90;;;;;;5050190;28;20436;-84
2021/09/10 04:15:34;;;;;;;0.93;0.45;;;16.10;99.90;;;;;;5054817;28;20420;-83
2021/09/10 04:18:01;;;;;;;1.07;0.43;;;16.20;99.90;;;;;;5052081;28;20025;-84
2021/09/10 04:20:27;;;;;;;8.63;0.70;;;16.30;99.90;;;;;;5032733;28;20071;-81
2021/09/10 04:22:53;;;;;;;1.85;1.15;;;16.20;99.90;;;;;;5052228;28;20016;-81
2021/09/10 04:25:20;;;;;;;0.32;0.32;;;16.20;99.90;;;;;;5052620;28;20094;-80
2021/09/10 04:27:45;;;;;;;0.20;0.20;;;16.30;99.90;;;;;;5053558;28;20048;-81
2021/09/10 04:30:11;;;;;;;0.97;0.97;;;16.20;99.90;;;;;;5034246;28;20079;-82
2021/09/10 04:32:37;;;;;;;1.53;0.63;;;16.10;99.90;;;;;;5051576;28;20390;-83
2021/09/10 04:35:05;;;;;;;1.70;1.60;;;16.10;99.90;;;;;;5053387;28;20071;-81
2021/09/10 04:37:30;;;;;;;0.47;0.47;;;16.10;99.90;;;;;;5057550;28;20058;-81
2021/09/10 04:39:56;;;;;;;0.30;0.30;;;16.20;99.90;;;;;;5057631;28;20025;-84
2021/09/10 04:42:22;;;;;;;3.77;0.83;;;16.10;99.90;;;;;;5058658;28;20036;-83
2021/09/10 04:44:48;;;;;;;2.80;0.70;;;16.10;99.90;;;;;;5055713;28;20048;-81
2021/09/10 04:47:14;;;;;;;0.87;0.87;;;16.10;99.90;;;;;;5057877;28;20028;-83
2021/09/10 04:49:41;;;;;;;0.50;0.50;;;16.10;99.90;;;;;;5039927;28;20390;-83
2021/09/10 04:52:07;;;;;;;0.50;0.50;;;16.00;99.90;;;;;;5058692;28;20046;-83
2021/09/10 04:54:32;;;;;;;0.43;0.43;;;16.10;99.90;;;;;;5057471;28;20052;-85
2021/09/10 04:56:58;;;;;;;0.47;0.47;;;16.10;99.90;;;;;;5057380;28;20477;-85
2021/09/10 04:59:24;;;;;;;0.87;0.83;;;16.10;99.90;;;;;;5039203;28;20416;-82
2021/09/10 05:01:49;;;;;;;0.53;0.53;;;16.10;99.90;;;;;;5059817;28;20509;-85
2021/09/10 05:04:15;;;;;;;0.83;0.63;;;16.10;99.90;;;;;;5052262;28;20037;-85
2021/09/10 05:06:41;;;;;;;0.73;0.23;;;16.20;99.90;;;;;;5060197;28;20390;-83
2021/09/10 05:09:06;;;;;;;0.47;0.43;;;16.30;99.90;;;;;;5052521;28;20426;-84
2021/09/10 05:11:32;;;;;;;0.30;0.30;;;16.30;99.90;;;;;;5056323;28;20576;-84
2021/09/10 05:13:58;;;;;;;2.43;1.30;;;16.40;99.90;;;;;;5056798;28;20467;-87
2021/09/10 05:16:23;;;;;;;0.50;0.50;;;16.40;99.90;;;;;;5056854;28;20468;-87
2021/09/10 05:18:49;;;;;;;0.40;0.40;;;16.40;99.90;;;;;;5055904;28;20024;-85
2021/09/10 05:21:15;;;;;;;0.30;0.30;;;16.40;99.90;;;;;;5038170;28;20389;-84
2021/09/10 05:23:40;;;;;;;0.50;0.50;;;16.30;99.90;;;;;;5051444;28;20494;-86
2021/09/10 05:26:06;;;;;;;0.60;0.60;;;16.20;99.90;;;;;;5050796;28;20033;-86
2021/09/10 05:28:32;;;;;;;1.07;0.97;;;16.00;99.90;;;;;;5052669;28;20022;-86
2021/09/10 05:30:57;;;;;;;0.30;0.30;;;15.90;99.90;;;;;;5053184;28;20029;-85
2021/09/10 05:33:23;;;;;;;1.50;1.23;;;16.00;99.90;;;;;;5035687;28;20033;-85
2021/09/10 05:35:49;;;;;;;3.80;0.67;;;16.00;99.90;;;;;;5057849;28;20021;-85
2021/09/10 05:38:14;;;;;;;0.47;0.47;;;15.90;99.90;;;;;;5051851;28;20115;-85
2021/09/10 05:40:40;;;;;;;0.73;0.63;;;15.90;99.90;;;;;;5050483;28;20061;-88
2021/09/10 05:43:06;;;;;;;1.20;0.77;;;15.90;99.90;;;;;;5055027;28;20036;-86
2021/09/10 05:45:32;;;;;;;2.03;1.27;;;15.90;99.90;;;;;;5054748;28;20032;-86
2021/09/10 05:47:58;;;;;;;0.20;0.20;;;16.10;99.90;;;;;;5055216;28;20025;-87
2021/09/10 05:50:23;;;;;;;0.57;0.57;;;16.00;99.90;;;;;;5049224;28;20029;-90
2021/09/10 05:52:49;;;;;;;1.87;1.20;;;15.90;99.90;;;;;;5048929;28;20013;-90
2021/09/10 05:55:15;;;;;;;0.77;0.77;;;16.00;99.90;;;;;;5064511;28;20029;-89
2021/09/10 05:57:41;;;;;;;0.33;0.33;;;16.00;99.90;;;;;;5050903;28;20031;-89
2021/09/10 06:00:07;;;;;;;0.30;0.30;;;16.10;99.90;;;;;;5049731;28;20025;-89
2021/09/10 06:02:33;;;;;;;1.23;0.47;;;16.40;99.90;;;;;;5050022;28;20056;-92
2021/09/10 06:04:59;;;;;;;0.83;0.83;;;16.40;99.90;;;;;;5049816;28;20476;-93
2021/09/10 06:07:24;;;;;;;1.37;0.57;;;16.50;99.90;;;;;;5050057;28;20033;-88
2021/09/10 06:09:50;;;;;;;0.93;0.83;;;16.70;99.90;;;;;;5049125;28;20455;-89
2021/09/10 06:12:16;;;;;;;0.50;0.50;;;16.80;99.90;;;;;;5049727;28;20531;-88
2021/09/10 06:14:41;;;;;;;0.50;0.50;;;16.90;99.90;;;;;;5038651;28;20366;-93
2021/09/10 06:17:07;;;;;;;0.33;0.33;;;17.00;99.90;;;;;;5027149;28;20167;-91
2021/09/10 06:19:33;;;;;;;1.97;1.00;;;17.20;99.90;;;;;;5031922;28;20163;-90
2021/09/10 06:21:59;;;;;;;0.60;0.60;;;17.10;99.90;;;;;;5050560;28;20021;-91
2021/09/10 06:24:25;;;;;;;0.40;0.37;;;16.80;99.90;;;;;;5049626;28;20130;-90
2021/09/10 06:26:51;;;;;;;0.50;0.50;;;16.50;99.90;;;;;;5032232;28;20290;-88
2021/09/10 06:29:16;;;;;;;0.70;0.70;;;16.60;99.90;;;;;;5048256;28;22005;-90
2021/09/10 06:31:42;;;;;;;0.50;0.50;;;16.70;99.90;;;;;;5047772;28;20025;-88
2021/09/10 06:34:08;;;;;;;0.70;0.70;;;16.70;99.90;;;;;;5063422;28;20028;-88
2021/09/10 06:36:34;;;;;;;2.08;1.75;;;16.60;99.90;;;;;;5048198;28;20569;-86
2021/09/10 06:39:00;;;;;;;0.22;0.22;;;16.90;99.90;;;;;;5047405;28;20095;-89
2021/09/10 06:41:26;;;;;;;0.50;0.50;;;16.90;99.90;;;;;;5047872;28;20116;-88
2021/09/10 06:43:52;;;;;;;0.37;0.37;;;16.90;99.90;;;;;;5048287;28;20482;-89
2021/09/10 06:46:17;;;;;;;1.83;0.50;;;17.00;99.90;;;;;;5047890;28;20468;-88
2021/09/10 06:48:43;;;;;;;0.37;0.37;;;17.00;99.90;;;;;;5050071;28;20107;-83
2021/09/10 06:51:09;;;;;;;0.20;0.20;;;17.20;99.90;;;;;;5039941;28;20556;-78
2021/09/10 06:53:35;;;;;;;0.27;0.27;;;17.40;99.90;;;;;;5053241;28;20553;-78
2021/09/10 06:56:01;;;;;;;0.63;0.63;;;17.70;99.90;;;;;;5047081;28;20290;-78
2021/09/10 06:58:27;;;;;;;0.13;0.13;;;17.50;99.90;;;;;;5047441;28;20451;-78
2021/09/10 07:00:53;;;;;;;0.33;0.33;;;17.80;99.90;;;;;;5031928;28;20037;-78
2021/09/10 07:03:19;;;;;;;0.40;0.40;;;18.00;99.90;;;;;;5047513;28;20047;-78
2021/09/10 07:05:44;;;;;;;0.40;0.33;;;18.40;99.90;;;;;;5047451;28;20040;-78
2021/09/10 07:08:10;;;;;;;0.70;0.70;;;18.90;99.90;;;;;;5047449;28;20013;-78
2021/09/10 07:10:36;;;;;;;0.83;0.83;;;19.10;99.90;;;;;;5047292;28;20051;-78
2021/09/10 07:13:02;;;;;;;0.87;0.77;;;18.20;99.90;;;;;;5048131;28;20043;-78
2021/09/10 07:15:28;;;;;;;0.38;0.15;;;17.90;99.90;;;;;;5047043;28;20060;-78
2021/09/10 07:17:54;;;;;;;0.40;0.40;;;17.80;99.90;;;;;;5047156;28;20501;-78
2021/09/10 07:20:19;;;;;;;0.83;0.70;;;17.70;99.90;;;;;;5046953;28;20108;-78
2021/09/10 07:22:45;;;;;;;0.20;0.20;;;17.90;99.90;;;;;;5047412;28;20035;-78
2021/09/10 07:25:11;;;;;;;0.73;0.60;;;18.00;99.90;;;;;;5046633;28;20045;-78
2021/09/10 07:27:37;;;;;;;0.52;0.40;;;18.10;99.90;;;;;;5049187;28;21249;-78
2021/09/10 07:30:03;;;;;;;1.07;0.73;;;18.00;99.90;;;;;;5046828;28;20036;-78
2021/09/10 07:32:29;;;;;;;0.32;0.32;;;18.10;99.90;;;;;;5046789;28;20043;-78
2021/09/10 07:34:55;;;;;;;0.43;0.43;;;18.40;99.90;;;;;;5046797;28;20159;-78
2021/09/10 07:37:27;;;;;;;7.30;1.27;;;18.40;99.90;;;;;;5046617;28;20056;-78
2021/09/10 07:39:53;;;;;;;0.98;0.57;;;18.20;99.90;;;;;;5044887;28;20045;-78
2021/09/10 07:42:20;;;;;;;0.22;0.22;;;18.50;99.90;;;;;;5046599;28;20618;-78
2021/09/10 07:44:46;;;;;;;2.78;0.40;;;19.00;99.90;;;;;;5046426;28;20059;-78
2021/09/10 07:47:11;;;;;;;0.30;0.30;;;19.30;99.90;;;;;;5046336;28;20139;-78
2021/09/10 07:49:38;;;;;;;0.27;0.27;;;19.70;99.90;;;;;;5046588;28;20539;-78
2021/09/10 07:52:04;;;;;;;0.30;0.30;;;19.40;99.90;;;;;;5047340;28;20029;-78
2021/09/10 07:54:29;;;;;;;0.45;0.25;;;19.30;99.90;;;;;;5047560;28;20047;-78
2021/09/10 07:56:55;;;;;;;0.57;0.57;;;19.30;99.90;;;;;;5029529;28;20020;-78
2021/09/10 07:59:21;;;;;;;0.33;0.33;;;19.30;99.90;;;;;;5046133;28;20028;-78
2021/09/10 08:01:46;;;;;;;0.20;0.20;;;19.30;99.90;;;;;;5061666;28;20044;-78
2021/09/10 08:04:12;;;;;;;0.60;0.60;;;19.20;99.90;;;;;;5046122;28;20045;-78
2021/09/10 08:06:38;;;;;;;1.15;0.90;;;19.00;99.90;;;;;;5048267;28;20094;-79
2021/09/10 08:09:05;;;;;;;0.10;0.10;;;19.10;99.90;;;;;;5027564;28;20025;-78
2021/09/10 08:11:33;;;;;;;0.38;0.38;;;19.90;99.90;;;;;;5045839;28;20131;-78
2021/09/10 08:14:06;;;;;;;0.32;0.32;;;21.00;99.90;;;;;;5045919;28;20108;-78
2021/09/10 08:16:32;;;;;;;0.55;0.55;;;21.80;99.90;;;;;;5046047;28;20036;-78
2021/09/10 08:18:58;;;;;;;1.43;0.90;;;22.20;99.90;;;;;;5047420;28;20029;-79
2021/09/10 08:21:24;;;;;;;0.60;0.52;;;21.90;99.90;;;;;;5046649;28;20029;-78
2021/09/10 08:23:50;;;;;;;0.33;0.30;;;21.30;99.90;;;;;;5045922;28;20059;-78
2021/09/10 08:26:15;;;;;;;0.60;0.60;;;20.80;99.90;;;;;;5045962;28;20079;-78
2021/09/10 08:28:41;;;;;;;0.00;0.00;;;20.30;99.90;;;;;;5046073;28;20029;-78
2021/09/10 08:31:07;;;;;;;0.23;0.23;;;19.40;99.90;;;;;;5046528;28;20033;-79
2021/09/10 08:33:33;;;;;;;0.38;0.38;;;19.30;99.90;;;;;;5047691;28;20036;-78
2021/09/10 08:35:59;;;;;;;0.40;0.40;;;20.70;99.90;;;;;;5045706;28;20086;-78
2021/09/10 08:38:24;;;;;;;0.47;0.47;;;22.10;99.90;;;;;;5045751;28;20094;-78
2021/09/10 08:40:54;;;;;;;0.10;0.10;;;22.70;99.90;;;;;;5046035;28;20033;-78
2021/09/10 08:43:20;;;;;;;0.25;0.25;;;24.40;99.90;;;;;;5045705;28;20079;-78
2021/09/10 08:45:46;;;;;;;0.32;0.32;;;24.40;99.90;;;;;;5047773;28;20040;-79
2021/09/10 08:48:12;;;;;;;0.43;0.43;;;24.60;99.90;;;;;;5045812;28;20029;-79
2021/09/10 08:50:37;;;;;;;0.55;0.43;;;29.00;99.90;;;;;;5045476;28;20033;-79
2021/09/10 08:53:03;;;;;;;0.30;0.30;;;31.20;99.90;;;;;;5045802;28;20032;-79
2021/09/10 08:55:29;;;;;;;1.47;0.80;;;26.90;99.90;;;;;;5044941;28;20694;-78
2021/09/10 08:57:55;;;;;;;1.38;0.55;;;24.70;99.90;;;;;;5047683;28;20182;-79
2021/09/10 09:00:33;;;;;;;0.57;0.33;;;27.30;99.90;;;;;;5045533;28;20508;-78
2021/09/10 09:03:01;;;;;;;0.30;0.28;;;24.90;99.90;;;;;;5045481;28;20044;-79
2021/09/10 09:05:27;;;;;;;0.35;0.35;;;25.40;99.90;;;;;;5045473;28;20033;-79
2021/09/10 09:08:13;;;;;;;0.20;0.20;;;24.70;99.90;;;;;;5045874;28;20072;-79
2021/09/10 09:10:53;;;;;;;0.20;0.20;;;24.50;99.90;;;;;;5031739;28;20462;-79
2021/09/10 09:13:20;;;;;;;0.20;0.20;;;24.00;99.90;;;;;;5045783;28;20052;-79
2021/09/10 09:15:46;;;;;;;0.38;0.38;;;23.90;99.90;;;;;;5047627;28;20037;-79
2021/09/10 09:18:12;;;;;;;2.30;0.68;;;23.10;99.90;;;;;;5045583;28;20447;-79
2021/09/10 09:20:38;;;;;;;0.73;0.63;;;22.20;99.90;;;;;;5048947;28;20115;-79
2021/09/10 09:23:06;;;;;;;0.15;0.15;;;22.20;99.90;;;;;;5049421;28;20040;-78
2021/09/10 09:25:42;;;;;;;0.22;0.22;;;22.10;99.90;;;;;;5049715;28;20087;-78
2021/09/10 09:28:27;;;;;;;0.47;0.25;;;21.70;99.90;;;;;;5049417;28;20353;-78
2021/09/10 09:30:56;;;;;;;0.68;0.45;;;22.00;99.90;;;;;;5047431;28;20037;-79
2021/09/10 09:33:33;;;;;;;0.68;0.68;;;21.70;99.90;;;;;;5049575;28;20021;-78
2021/09/10 09:36:02;;;;;;;0.47;0.47;;;21.00;99.90;;;;;;5048817;28;20033;-79
2021/09/10 09:38:31;;;;;;;0.10;0.10;;;20.90;99.90;;;;;;5032330;28;20025;-79
2021/09/10 09:41:02;;;;;;;0.43;0.43;;;21.60;99.90;;;;;;5032161;28;20054;-79
2021/09/10 09:43:31;;;;;;;0.25;0.20;;;27.70;99.90;;;;;;5033711;28;20032;-79
2021/09/10 09:45:57;;;;;;;0.30;0.30;;;32.60;94.00;;;;;;5050281;28;20033;-79
2021/09/10 09:48:28;;;;;;;0.45;0.45;;;32.20;91.70;;;;;;5048005;28;20031;-79
2021/09/10 09:50:56;;;;;;;0.32;0.32;;;30.50;90.80;;;;;;5048526;28;20044;-79
2021/09/10 09:53:24;;;;;;;0.47;0.30;;;31.80;89.70;;;;;;5048814;28;20047;-79
2021/09/10 09:55:51;;;;;;;0.10;0.10;;;33.10;82.80;;;;;;5048644;28;20028;-79
2021/09/10 09:58:17;;;;;;;0.38;0.38;;;34.50;74.80;;;;;;5030892;28;20175;-79
2021/09/10 10:00:47;;;;;;;0.63;0.35;;;36.70;64.60;;;;;;5049594;28;20033;-78
2021/09/10 10:03:14;;;;;;;0.30;0.30;;;34.80;66.30;;;;;;5048265;28;20555;-79
2021/09/10 10:05:56;;;;;;;0.38;0.20;;;36.70;59.40;;;;;;5048441;28;20162;-79
2021/09/10 10:08:26;;;;;;;0.45;0.45;;;32.10;57.70;;;;;;5048210;28;20017;-79
2021/09/10 10:10:56;;;;;;;5.15;0.80;;;32.50;66.80;;;;;;5047979;28;20049;-79
2021/09/10 10:13:27;;;;;;;2.35;0.20;;;35.80;55.60;;;;;;5048186;28;20030;-78
2021/09/10 10:15:54;;;;;;;0.10;0.10;;;30.50;67.60;;;;;;5046488;28;20174;-78
2021/09/10 10:18:40;;;;;;;;;;;33.60;76.60;;;;;;5048847;28;20087;-79
2021/09/10 10:21:08;;;;;;;0.00;0.00;;;37.00;54.50;;;;;;5045982;28;19912;-79
2021/09/10 10:23:45;;;;;;;0.38;0.38;;;32.00;61.60;;;;;;5047810;28;20140;-79
2021/09/10 10:26:17;;;;;;;0.80;0.80;;;30.30;71.70;;;;;;5047924;28;20024;-79
2021/09/10 10:28:43;;;;;;;0.20;0.20;;;28.00;72.60;;;;;;5047841;28;20029;-79
2021/09/10 10:31:09;;;;;;;;;;;27.20;76.10;;;;;;5047717;28;20075;-79
2021/09/10 10:33:35;;;;;;;;;;;28.90;73.80;;;;;;5048378;28;19905;-79
2021/09/10 10:36:31;;;;;;;0.10;0.10;;;27.60;75.30;;;;;;5047653;28;19956;-79
2021/09/10 10:39:09;;;;;;;0.10;0.10;;;26.40;81.20;;;;;;5041414;28;20033;-79
2021/09/10 10:41:53;;;;;;;0.05;0.05;;;25.70;84.80;;;;;;5047623;28;20029;-79
2021/09/10 10:44:34;;;;;;;0.52;0.40;;;27.10;81.90;;;;;;5047448;28;20041;-79
2021/09/10 10:47:10;;;;;;;0.10;0.10;;;26.60;81.90;;;;;;5047338;28;20498;-79
2021/09/10 10:49:38;;;;;;;0.30;0.30;;;26.10;81.90;;;;;;5046117;28;20074;-79
2021/09/10 10:52:33;;;;;;;0.17;0.10;;;24.30;84.50;;;;;;5030629;28;20405;-78
2021/09/10 10:55:22;;;;;;;0.20;0.20;;;23.70;88.60;;;;;;5045452;28;20025;-79
2021/09/10 10:57:52;;;;;;;0.10;0.10;;;22.90;91.30;;;;;;5049557;28;20022;-79
2021/09/10 11:00:33;;;;;;;0.32;0.32;;;22.50;92.70;;;;;;5047180;28;20060;-78
2021/09/10 11:03:14;;;;;;;1.17;0.43;;;23.00;92.50;;;;;;5047322;28;20056;-78
2021/09/10 11:05:40;;;;;;;0.68;0.25;;;23.50;91.90;;;;;;5047386;28;20078;-78
2021/09/10 11:08:06;;;;;;;;;;;23.70;92.10;;;;;;5047570;28;20029;-78
2021/09/10 11:10:31;;;;;;;;;;;24.40;91.20;;;;;;5047492;28;19923;-79
2021/09/10 11:12:58;;;;;;;0.23;0.20;;;24.90;90.40;;;;;;5048921;28;20292;-78
2021/09/10 11:15:28;;;;;;;1.65;0.98;;;24.50;91.30;;;;;;5046465;28;20035;-78
2021/09/10 11:18:07;;;;;;;0.30;0.30;;;24.30;90.80;;;;;;5030329;28;20059;-79
2021/09/10 11:20:40;;;;;;;0.25;0.20;;;24.50;91.00;;;;;;5046964;28;20044;-78
2021/09/10 11:23:08;;;;;;;0.17;0.17;;;24.40;90.70;;;;;;5046844;28;20025;-79
2021/09/10 11:25:41;;;;;;;0.32;0.32;;;24.00;91.20;;;;;;5046840;28;20409;-78
2021/09/10 11:28:09;;;;;;;0.20;0.10;;;24.30;90.70;;;;;;5047387;28;20087;-78
2021/09/10 11:30:35;;;;;;;0.10;0.10;;;23.90;90.40;;;;;;5046742;28;20374;-78
2021/09/10 11:33:04;;;;;;;0.10;0.10;;;24.10;91.20;;;;;;5046581;28;20063;-79
2021/09/10 11:35:31;;;;;;;0.17;0.17;;;24.80;91.30;;;;;;5037687;28;20028;-79
2021/09/10 11:38:00;;;;;;;0.22;0.22;;;24.90;91.50;;;;;;5013256;28;20029;-79
2021/09/10 11:40:41;;;;;;;0.13;0.13;;;25.40;90.10;;;;;;5029034;28;20030;-79
2021/09/10 11:43:24;;;;;;;0.20;0.20;;;24.60;90.00;;;;;;5029980;28;20025;-79
2021/09/10 11:45:52;;;;;;;0.30;0.30;;;25.40;90.30;;;;;;5030801;28;20033;-79
2021/09/10 11:48:21;;;;;;;0.10;0.10;;;25.60;88.50;;;;;;5033257;28;20025;-79
2021/09/10 11:50:59;;;;;;;2.33;0.85;;;24.40;90.70;;;;;;5028932;28;20103;-79
2021/09/10 11:53:34;;;;;;;0.13;0.13;;;23.50;91.60;;;;;;5030156;28;20030;-79
2021/09/10 11:56:07;;;;;;;0.32;0.32;;;24.70;91.60;;;;;;5032247;28;20029;-79
2021/09/10 11:58:37;;;;;;;0.13;0.03;;;25.50;88.90;;;;;;5045811;28;20037;-79
2021/09/10 12:01:30;;;;;;;0.13;0.10;;;26.30;86.80;;;;;;5046756;28;20107;-79
2021/09/10 12:04:02;;;;;;;0.10;0.10;;;25.00;88.60;;;;;;5028023;28;20041;-79
2021/09/10 12:06:29;;;;;;;0.10;0.10;;;25.20;88.50;;;;;;5043518;28;20818;-78
2021/09/10 12:09:15;;;;;;;0.15;0.15;;;25.30;86.50;;;;;;5041398;28;20037;-79
2021/09/10 12:12:00;;;;;;;;;;;25.60;87.60;;;;;;5038903;28;20038;-79
2021/09/10 12:14:39;;;;;;;0.08;0.08;;;24.40;90.00;;;;;;5032257;28;19932;-78
2021/09/10 12:17:11;;;;;;;0.52;0.52;;;24.30;89.40;;;;;;5028267;28;20022;-78
2021/09/10 12:20:11;;;;;;;0.10;0.10;;;24.30;90.00;;;;;;5030168;28;20028;-78
2021/09/10 12:22:45;;;;;;;0.03;0.03;;;24.30;89.60;;;;;;5029146;28;20129;-78
2021/09/10 12:25:29;;;;;;;0.10;0.10;;;24.10;90.80;;;;;;5040246;28;20293;-79
2021/09/10 12:28:06;;;;;;;0.40;0.40;;;23.40;94.00;;;;;;5029945;28;20026;-79
2021/09/10 12:30:48;;;;;;;1.00;0.40;;;23.20;94.50;;;;;;5035257;28;20116;-79
2021/09/10 12:33:19;;;;;;;0.00;0.00;;;22.60;95.90;;;;;;5033268;28;20534;-80
2021/09/10 12:35:50;;;;;;;0.38;0.17;;;22.00;99.90;;;;;;5043212;28;20595;-81
2021/09/10 12:38:18;;;;;;;0.38;0.35;;;20.90;99.90;;;;;;5022881;28;20036;-81
2021/09/10 12:40:47;;;;;;;0.45;0.30;;;20.70;99.90;;;;;;5028323;28;20040;-80
2021/09/10 12:43:15;;;;;;;0.45;0.45;;;20.50;99.90;;;;;;5040712;28;20060;-79
2021/09/10 12:45:41;;;;;;;0.35;0.32;;;20.40;99.90;;;;;;5019317;28;20033;-81
2021/09/10 12:48:08;;;;;;;1.55;1.13;;;20.00;99.90;;;;;;5039336;28;20075;-81
2021/09/10 12:50:34;;;;;;;0.70;0.32;;;19.50;99.90;;;;;;5060517;28;20056;-81